sensor_id;sensor_type;location;lat;lon;timestamp;pressure;altitude;pressure_sealevel;temperature;humidity
50364;BME280;36272;59.400;17.982;2022-07-23T08:28:57;100975.13;;;20.55;70.16
50364;BME280;36272;59.400;17.982;2022-07-23T08:34:00;100967.25;;;20.54;70.12
50364;BME280;36272;59.400;17.982;2022-07-23T08:39:04;100975.09;;;20.60;69.99
50364;BME280;36272;59.400;17.982;2022-07-23T08:44:07;100964.44;;;20.69;69.76
50364;BME280;36272;59.400;17.982;2022-07-23T08:49:10;100973.81;;;20.87;70.06
50364;BME280;36272;59.400;17.982;2022-07-23T08:54:12;100977.88;;;20.90;69.18
50364;BME280;36272;59.400;17.982;2022-07-23T08:59:14;100989.63;;;20.80;69.44
50364;BME280;36272;59.400;17.982;2022-07-23T09:04:19;100993.19;;;20.80;69.47
50364;BME280;36272;59.400;17.982;2022-07-23T09:09:21;100994.19;;;20.90;69.33
50364;BME280;36272;59.400;17.982;2022-07-23T09:14:43;100988.72;;;20.95;69.36
50364;BME280;36272;59.400;17.982;2022-07-23T09:19:46;101007.94;;;21.04;69.02
50364;BME280;36272;59.400;17.982;2022-07-23T09:25:07;100994.34;;;21.04;69.32
50364;BME280;36272;59.400;17.982;2022-07-23T09:30:10;100996.28;;;20.98;69.25
50364;BME280;36272;59.400;17.982;2022-07-23T09:35:11;101012.59;;;20.98;69.33
50364;BME280;36272;59.400;17.982;2022-07-23T09:40:13;101003.63;;;20.98;69.35
50364;BME280;36272;59.400;17.982;2022-07-23T09:45:18;100985.84;;;21.10;69.12
50364;BME280;36272;59.400;17.982;2022-07-23T09:50:20;101015.44;;;21.17;69.15
50364;BME280;36272;59.400;17.982;2022-07-23T09:55:31;101007.50;;;21.21;68.71
50364;BME280;36272;59.400;17.982;2022-07-23T10:00:42;101026.22;;;21.22;68.65
50364;BME280;36272;59.400;17.982;2022-07-23T10:05:48;101011.25;;;21.25;68.70
50364;BME280;36272;59.400;17.982;2022-07-23T10:10:50;101015.16;;;21.14;68.71
50364;BME280;36272;59.400;17.982;2022-07-23T10:15:53;101020.25;;;20.96;68.80
50364;BME280;36272;59.400;17.982;2022-07-23T10:20:55;101022.97;;;20.96;68.70
50364;BME280;36272;59.400;17.982;2022-07-23T10:26:24;101016.91;;;20.99;69.23
50364;BME280;36272;59.400;17.982;2022-07-23T10:31:52;101014.72;;;21.01;68.84
50364;BME280;36272;59.400;17.982;2022-07-23T10:37:13;101018.81;;;21.04;68.69
50364;BME280;36272;59.400;17.982;2022-07-23T10:42:19;101033.88;;;20.91;68.88
50364;BME280;36272;59.400;17.982;2022-07-23T10:47:29;101025.28;;;20.73;69.67
50364;BME280;36272;59.400;17.982;2022-07-23T10:52:40;101036.44;;;20.72;69.31
50364;BME280;36272;59.400;17.982;2022-07-23T10:57:51;101021.25;;;20.65;69.59
50364;BME280;36272;59.400;17.982;2022-07-23T11:03:00;101015.84;;;20.60;69.98
50364;BME280;36272;59.400;17.982;2022-07-23T11:34:42;101043.34;;;19.98;73.43
50364;BME280;36272;59.400;17.982;2022-07-23T11:39:46;101038.75;;;19.94;73.91
50364;BME280;36272;59.400;17.982;2022-07-23T11:44:48;101061.25;;;19.99;74.25
50364;BME280;36272;59.400;17.982;2022-07-23T11:49:58;101045.25;;;20.03;73.67
50364;BME280;36272;59.400;17.982;2022-07-23T12:05:14;101025.41;;;20.08;72.71
50364;BME280;36272;59.400;17.982;2022-07-23T12:10:35;101019.66;;;20.14;72.76
50364;BME280;36272;59.400;17.982;2022-07-23T12:15:46;101022.53;;;20.33;72.18
50364;BME280;36272;59.400;17.982;2022-07-23T12:20:51;101022.72;;;20.53;71.37
50364;BME280;36272;59.400;17.982;2022-07-23T12:25:54;101038.94;;;20.58;70.39
50364;BME280;36272;59.400;17.982;2022-07-23T12:30:57;101036.22;;;20.58;70.29
50364;BME280;36272;59.400;17.982;2022-07-23T12:36:04;101028.09;;;20.58;70.31
50364;BME280;36272;59.400;17.982;2022-07-23T12:41:07;101047.94;;;20.58;70.05
50364;BME280;36272;59.400;17.982;2022-07-23T12:46:16;101037.28;;;20.62;70.39
50364;BME280;36272;59.400;17.982;2022-07-23T12:56:31;101037.75;;;20.74;69.25
50364;BME280;36272;59.400;17.982;2022-07-23T13:01:34;101045.31;;;20.88;68.77
50364;BME280;36272;59.400;17.982;2022-07-23T13:06:42;101043.13;;;20.90;68.75
50364;BME280;36272;59.400;17.982;2022-07-23T13:11:45;101044.78;;;20.86;68.12
50364;BME280;36272;59.400;17.982;2022-07-23T13:16:48;101047.50;;;20.86;67.99
50364;BME280;36272;59.400;17.982;2022-07-23T13:21:50;101055.59;;;20.96;67.58
50364;BME280;36272;59.400;17.982;2022-07-23T13:26:52;101074.53;;;21.01;67.55
50364;BME280;36272;59.400;17.982;2022-07-23T13:31:53;101077.22;;;21.06;67.14
50364;BME280;36272;59.400;17.982;2022-07-23T13:36:55;101077.31;;;20.96;67.07
50364;BME280;36272;59.400;17.982;2022-07-23T13:41:57;101081.44;;;20.88;67.25
50364;BME280;36272;59.400;17.982;2022-07-23T13:46:58;101082.84;;;20.86;67.32
50364;BME280;36272;59.400;17.982;2022-07-23T13:52:00;101081.22;;;20.85;67.37
50364;BME280;36272;59.400;17.982;2022-07-23T13:57:02;101075.22;;;20.88;67.18
50364;BME280;36272;59.400;17.982;2022-07-23T14:02:04;101066.50;;;20.91;67.10
50364;BME280;36272;59.400;17.982;2022-07-23T14:07:06;101090.38;;;20.94;67.08
50364;BME280;36272;59.400;17.982;2022-07-23T14:12:08;101080.53;;;20.98;67.07
50364;BME280;36272;59.400;17.982;2022-07-23T14:17:10;101085.94;;;21.03;67.39
50364;BME280;36272;59.400;17.982;2022-07-23T14:22:12;101077.00;;;21.03;67.23
50364;BME280;36272;59.400;17.982;2022-07-23T14:27:14;101078.94;;;20.97;67.11
50364;BME280;36272;59.400;17.982;2022-07-23T14:32:16;101074.88;;;20.94;67.07
50364;BME280;36272;59.400;17.982;2022-07-23T14:37:18;101070.78;;;20.97;67.39
50364;BME280;36272;59.400;17.982;2022-07-23T14:42:20;101077.00;;;21.03;67.04
50364;BME280;36272;59.400;17.982;2022-07-23T14:47:21;101079.19;;;21.01;66.73
50364;BME280;36272;59.400;17.982;2022-07-23T14:52:23;101087.03;;;21.02;66.98
50364;BME280;36272;59.400;17.982;2022-07-23T14:57:25;101084.06;;;21.04;66.87
50364;BME280;36272;59.400;17.982;2022-07-23T15:02:26;101083.22;;;21.03;66.80
50364;BME280;36272;59.400;17.982;2022-07-23T15:07:29;101074.53;;;21.01;66.96
50364;BME280;36272;59.400;17.982;2022-07-23T15:12:31;101081.91;;;21.01;66.54
50364;BME280;36272;59.400;17.982;2022-07-23T15:17:33;101076.47;;;21.01;66.49
50364;BME280;36272;59.400;17.982;2022-07-23T15:22:34;101073.97;;;21.04;66.33
50364;BME280;36272;59.400;17.982;2022-07-23T15:27:36;101073.94;;;21.09;66.14
50364;BME280;36272;59.400;17.982;2022-07-23T15:32:38;101073.13;;;21.09;66.68
50364;BME280;36272;59.400;17.982;2022-07-23T15:37:40;101071.22;;;21.09;67.50
50364;BME280;36272;59.400;17.982;2022-07-23T15:42:41;101074.47;;;21.12;67.65
50364;BME280;36272;59.400;17.982;2022-07-23T15:47:43;101072.56;;;21.12;67.31
50364;BME280;36272;59.400;17.982;2022-07-23T15:52:45;101078.28;;;21.10;66.93
50364;BME280;36272;59.400;17.982;2022-07-23T15:57:47;101065.25;;;21.07;67.17
50364;BME280;36272;59.400;17.982;2022-07-23T16:02:49;101070.13;;;21.10;66.91
50364;BME280;36272;59.400;17.982;2022-07-23T16:07:50;101069.06;;;21.06;66.85
50364;BME280;36272;59.400;17.982;2022-07-23T16:12:52;101065.25;;;21.07;66.48
50364;BME280;36272;59.400;17.982;2022-07-23T16:17:55;101051.66;;;21.07;66.45
50364;BME280;36272;59.400;17.982;2022-07-23T16:22:57;101069.06;;;21.06;66.34
50364;BME280;36272;59.400;17.982;2022-07-23T16:27:59;101059.06;;;21.02;66.22
50364;BME280;36272;59.400;17.982;2022-07-23T16:33:01;101056.59;;;21.00;66.30
50364;BME280;36272;59.400;17.982;2022-07-23T16:38:03;101048.19;;;21.02;66.07
50364;BME280;36272;59.400;17.982;2022-07-23T16:43:05;101064.22;;;20.98;66.14
50364;BME280;36272;59.400;17.982;2022-07-23T16:48:07;101049.88;;;20.92;66.40
50364;BME280;36272;59.400;17.982;2022-07-23T16:53:08;101056.16;;;20.93;66.30
50364;BME280;36272;59.400;17.982;2022-07-23T16:58:10;101054.53;;;20.92;66.37
50364;BME280;36272;59.400;17.982;2022-07-23T17:03:12;101055.88;;;20.89;66.67
50364;BME280;36272;59.400;17.982;2022-07-23T17:08:13;101051.53;;;20.88;66.79
50364;BME280;36272;59.400;17.982;2022-07-23T17:13:15;101058.06;;;20.87;66.66
50364;BME280;36272;59.400;17.982;2022-07-23T17:18:17;101056.22;;;20.83;67.14
50364;BME280;36272;59.400;17.982;2022-07-23T17:23:19;101048.59;;;20.85;67.23
50364;BME280;36272;59.400;17.982;2022-07-23T17:28:20;101052.63;;;20.87;66.92
50364;BME280;36272;59.400;17.982;2022-07-23T17:33:24;101028.19;;;20.87;67.41
50364;BME280;36272;59.400;17.982;2022-07-23T17:38:26;101046.97;;;20.84;67.37
50364;BME280;36272;59.400;17.982;2022-07-23T17:43:28;101049.13;;;20.87;67.17
50364;BME280;36272;59.400;17.982;2022-07-23T17:48:29;101048.59;;;20.85;67.21
50364;BME280;36272;59.400;17.982;2022-07-23T17:53:31;101039.09;;;20.82;66.96
50364;BME280;36272;59.400;17.982;2022-07-23T17:58:35;101038.84;;;20.78;66.19
50364;BME280;36272;59.400;17.982;2022-07-23T18:03:37;101029.13;;;20.67;66.03
50364;BME280;36272;59.400;17.982;2022-07-23T18:08:39;101028.59;;;20.65;65.71
50364;BME280;36272;59.400;17.982;2022-07-23T18:13:41;101036.47;;;20.67;65.14
50364;BME280;36272;59.400;17.982;2022-07-23T18:18:43;101039.44;;;20.65;64.79
50364;BME280;36272;59.400;17.982;2022-07-23T18:23:44;101050.88;;;20.62;64.66
50364;BME280;36272;59.400;17.982;2022-07-23T18:28:46;101053.88;;;20.60;64.54
50364;BME280;36272;59.400;17.982;2022-07-23T18:33:48;101054.41;;;20.62;63.89
50364;BME280;36272;59.400;17.982;2022-07-23T18:38:49;101055.25;;;20.58;63.53
50364;BME280;36272;59.400;17.982;2022-07-23T18:43:53;101065.31;;;20.57;63.28
50364;BME280;36272;59.400;17.982;2022-07-23T18:48:55;101052.31;;;20.54;63.43
50364;BME280;36272;59.400;17.982;2022-07-23T18:53:57;101068.06;;;20.52;63.35
50364;BME280;36272;59.400;17.982;2022-07-23T18:58:59;101066.72;;;20.49;63.45
50364;BME280;36272;59.400;17.982;2022-07-23T19:04:00;101077.63;;;20.44;63.33
50364;BME280;36272;59.400;17.982;2022-07-23T19:09:07;101056.16;;;20.43;63.11
50364;BME280;36272;59.400;17.982;2022-07-23T19:14:08;101074.63;;;20.41;63.35
50364;BME280;36272;59.400;17.982;2022-07-23T19:19:10;101067.88;;;20.38;63.22
50364;BME280;36272;59.400;17.982;2022-07-23T19:24:12;101070.84;;;20.36;63.05
50364;BME280;36272;59.400;17.982;2022-07-23T19:29:13;101076.59;;;20.30;63.10
50364;BME280;36272;59.400;17.982;2022-07-23T19:34:15;101079.31;;;20.30;63.10
50364;BME280;36272;59.400;17.982;2022-07-23T19:39:17;101079.91;;;20.21;63.95
50364;BME280;36272;59.400;17.982;2022-07-23T19:44:18;101079.69;;;20.08;64.86
50364;BME280;36272;59.400;17.982;2022-07-23T19:49:20;101084.34;;;19.97;66.85
50364;BME280;36272;59.400;17.982;2022-07-23T19:54:22;101091.69;;;19.86;66.54
50364;BME280;36272;59.400;17.982;2022-07-23T19:59:23;101082.75;;;19.75;67.31
50364;BME280;36272;59.400;17.982;2022-07-23T20:04:25;101080.31;;;19.68;67.79
50364;BME280;36272;59.400;17.982;2022-07-23T20:09:27;101095.28;;;19.55;69.40
50364;BME280;36272;59.400;17.982;2022-07-23T20:14:30;101098.25;;;19.43;71.26
50364;BME280;36272;59.400;17.982;2022-07-23T20:19:32;101099.63;;;19.36;72.59
50364;BME280;36272;59.400;17.982;2022-07-23T20:24:33;101103.97;;;19.16;73.61
50364;BME280;36272;59.400;17.982;2022-07-23T20:29:38;101100.44;;;19.10;74.18
50364;BME280;36272;59.400;17.982;2022-07-23T20:34:39;101109.38;;;19.00;74.50
50364;BME280;36272;59.400;17.982;2022-07-23T20:39:42;101095.53;;;18.92;75.69
50364;BME280;36272;59.400;17.982;2022-07-23T20:44:44;101114.53;;;18.97;75.98
50364;BME280;36272;59.400;17.982;2022-07-23T20:49:46;101109.91;;;18.97;76.14
50364;BME280;36272;59.400;17.982;2022-07-23T20:54:47;101122.38;;;19.04;76.12
50364;BME280;36272;59.400;17.982;2022-07-23T20:59:49;101124.81;;;19.05;76.21
50364;BME280;36272;59.400;17.982;2022-07-23T21:04:56;101098.53;;;19.00;76.77
50364;BME280;36272;59.400;17.982;2022-07-23T21:09:58;101119.94;;;19.02;76.41
50364;BME280;36272;59.400;17.982;2022-07-23T21:14:59;101119.38;;;19.00;75.68
50364;BME280;36272;59.400;17.982;2022-07-23T21:20:01;101115.06;;;18.99;75.26
50364;BME280;36272;59.400;17.982;2022-07-23T21:25:03;101107.50;;;18.96;74.79
50364;BME280;36272;59.400;17.982;2022-07-23T21:30:06;101100.13;;;18.91;74.47
50364;BME280;36272;59.400;17.982;2022-07-23T21:35:10;101112.03;;;18.90;74.17
50364;BME280;36272;59.400;17.982;2022-07-23T21:40:15;101105.28;;;18.93;74.42
50364;BME280;36272;59.400;17.982;2022-07-23T21:45:17;101114.75;;;18.95;74.10
50364;BME280;36272;59.400;17.982;2022-07-23T21:50:18;101114.25;;;18.98;74.28
50364;BME280;36272;59.400;17.982;2022-07-23T21:55:20;101114.25;;;18.98;74.88
50364;BME280;36272;59.400;17.982;2022-07-23T22:00:25;101104.22;;;18.99;75.41
50364;BME280;36272;59.400;17.982;2022-07-23T22:05:29;101119.94;;;18.97;75.23
50364;BME280;36272;59.400;17.982;2022-07-23T22:10:31;101116.13;;;18.93;74.74
50364;BME280;36272;59.400;17.982;2022-07-23T22:15:50;101110.16;;;18.85;74.20
50364;BME280;36272;59.400;17.982;2022-07-23T22:20:52;101112.00;;;18.80;73.99
50364;BME280;36272;59.400;17.982;2022-07-23T22:25:55;101117.16;;;18.76;74.31
50364;BME280;36272;59.400;17.982;2022-07-23T22:30:56;101116.34;;;18.70;74.80
50364;BME280;36272;59.400;17.982;2022-07-23T22:36:04;101095.19;;;18.62;75.60
50364;BME280;36272;59.400;17.982;2022-07-23T22:41:06;101103.31;;;18.62;75.61
50364;BME280;36272;59.400;17.982;2022-07-23T22:46:07;101114.69;;;18.59;75.24
50364;BME280;36272;59.400;17.982;2022-07-23T22:51:09;101105.19;;;18.56;75.10
50364;BME280;36272;59.400;17.982;2022-07-23T22:56:11;101108.44;;;18.53;75.29
50364;BME280;36272;59.400;17.982;2022-07-23T23:01:13;101113.56;;;18.50;75.42
50364;BME280;36272;59.400;17.982;2022-07-23T23:06:14;101119.50;;;18.47;74.95
50364;BME280;36272;59.400;17.982;2022-07-23T23:11:16;101124.13;;;18.46;74.80
50364;BME280;36272;59.400;17.982;2022-07-23T23:16:18;101130.34;;;18.47;74.28
50364;BME280;36272;59.400;17.982;2022-07-23T23:21:19;101123.84;;;18.48;74.44
50364;BME280;36272;59.400;17.982;2022-07-23T23:26:21;101124.94;;;18.47;73.89
50364;BME280;36272;59.400;17.982;2022-07-23T23:31:23;101118.41;;;18.42;74.00
50364;BME280;36272;59.400;17.982;2022-07-23T23:36:25;101111.66;;;18.40;73.54
50364;BME280;36272;59.400;17.982;2022-07-23T23:41:27;101108.38;;;18.38;73.36
50364;BME280;36272;59.400;17.982;2022-07-23T23:46:28;101113.25;;;18.36;72.74
50364;BME280;36272;59.400;17.982;2022-07-23T23:51:30;101111.34;;;18.36;72.83
50364;BME280;36272;59.400;17.982;2022-07-23T23:56:32;101107.28;;;18.34;73.16
